sensor_id;sensor_type;location;lat;lon;timestamp;P1;durP1;ratioP1;P2;durP2;ratioP2
39620;SDS011;25309;48.686;9.170;2024-03-23T00:55:12;3.53;;;2.00;;
39620;SDS011;25309;48.686;9.170;2024-03-23T00:57:38;6.40;;;1.93;;
39620;SDS011;25309;48.686;9.170;2024-03-23T01:00:04;4.30;;;2.50;;
39620;SDS011;25309;48.686;9.170;2024-03-23T01:02:31;3.70;;;2.20;;
39620;SDS011;25309;48.686;9.170;2024-03-23T01:04:57;2.87;;;1.97;;
39620;SDS011;25309;48.686;9.170;2024-03-23T01:07:23;3.23;;;2.07;;
39620;SDS011;25309;48.686;9.170;2024-03-23T01:09:50;3.57;;;2.30;;
39620;SDS011;25309;48.686;9.170;2024-03-23T01:12:18;3.27;;;2.10;;
39620;SDS011;25309;48.686;9.170;2024-03-23T01:14:44;2.70;;;1.90;;
39620;SDS011;25309;48.686;9.170;2024-03-23T01:17:10;3.47;;;1.80;;
39620;SDS011;25309;48.686;9.170;2024-03-23T01:19:36;3.73;;;2.27;;
39620;SDS011;25309;48.686;9.170;2024-03-23T01:22:04;3.10;;;1.90;;
39620;SDS011;25309;48.686;9.170;2024-03-23T01:24:30;4.40;;;2.17;;
39620;SDS011;25309;48.686;9.170;2024-03-23T01:26:57;4.10;;;2.33;;
39620;SDS011;25309;48.686;9.170;2024-03-23T01:29:23;3.07;;;2.17;;
39620;SDS011;25309;48.686;9.170;2024-03-23T01:31:49;3.27;;;2.10;;
39620;SDS011;25309;48.686;9.170;2024-03-23T01:34:15;3.30;;;2.00;;
39620;SDS011;25309;48.686;9.170;2024-03-23T01:36:41;3.03;;;2.00;;
39620;SDS011;25309;48.686;9.170;2024-03-23T01:39:07;3.07;;;2.20;;
39620;SDS011;25309;48.686;9.170;2024-03-23T01:41:36;2.50;;;1.90;;
39620;SDS011;25309;48.686;9.170;2024-03-23T01:44:06;3.67;;;2.20;;
39620;SDS011;25309;48.686;9.170;2024-03-23T01:46:33;3.13;;;2.10;;
39620;SDS011;25309;48.686;9.170;2024-03-23T01:48:59;3.70;;;1.97;;
39620;SDS011;25309;48.686;9.170;2024-03-23T01:51:25;4.00;;;1.83;;
39620;SDS011;25309;48.686;9.170;2024-03-23T01:53:52;3.27;;;1.97;;
39620;SDS011;25309;48.686;9.170;2024-03-23T01:56:19;4.97;;;2.03;;
39620;SDS011;25309;48.686;9.170;2024-03-23T01:58:46;3.57;;;2.10;;
39620;SDS011;25309;48.686;9.170;2024-03-23T02:01:13;2.63;;;2.10;;
39620;SDS011;25309;48.686;9.170;2024-03-23T02:03:39;2.30;;;1.80;;
39620;SDS011;25309;48.686;9.170;2024-03-23T02:06:05;3.70;;;1.90;;
39620;SDS011;25309;48.686;9.170;2024-03-23T02:08:32;3.10;;;2.10;;
39620;SDS011;25309;48.686;9.170;2024-03-23T02:10:59;3.30;;;2.00;;
39620;SDS011;25309;48.686;9.170;2024-03-23T02:13:25;3.43;;;2.30;;
39620;SDS011;25309;48.686;9.170;2024-03-23T02:15:52;3.47;;;1.70;;
39620;SDS011;25309;48.686;9.170;2024-03-23T02:18:19;3.43;;;2.00;;
39620;SDS011;25309;48.686;9.170;2024-03-23T02:20:45;2.37;;;1.80;;
39620;SDS011;25309;48.686;9.170;2024-03-23T02:23:16;3.43;;;2.10;;
39620;SDS011;25309;48.686;9.170;2024-03-23T02:25:43;3.30;;;1.80;;
39620;SDS011;25309;48.686;9.170;2024-03-23T02:28:09;3.20;;;2.13;;
39620;SDS011;25309;48.686;9.170;2024-03-23T02:30:36;1.73;;;1.63;;
39620;SDS011;25309;48.686;9.170;2024-03-23T02:33:02;4.07;;;2.07;;
39620;SDS011;25309;48.686;9.170;2024-03-23T02:35:29;3.13;;;2.10;;
39620;SDS011;25309;48.686;9.170;2024-03-23T02:37:55;4.03;;;2.27;;
39620;SDS011;25309;48.686;9.170;2024-03-23T02:40:23;2.70;;;2.07;;
39620;SDS011;25309;48.686;9.170;2024-03-23T02:42:50;3.53;;;2.20;;
39620;SDS011;25309;48.686;9.170;2024-03-23T02:45:16;3.13;;;1.80;;
39620;SDS011;25309;48.686;9.170;2024-03-23T02:47:42;2.87;;;1.73;;
39620;SDS011;25309;48.686;9.170;2024-03-23T02:50:09;2.53;;;1.87;;
39620;SDS011;25309;48.686;9.170;2024-03-23T02:52:35;4.07;;;2.27;;
39620;SDS011;25309;48.686;9.170;2024-03-23T02:55:01;3.17;;;1.80;;
39620;SDS011;25309;48.686;9.170;2024-03-23T02:57:29;2.67;;;1.97;;
39620;SDS011;25309;48.686;9.170;2024-03-23T02:59:55;2.47;;;1.80;;
39620;SDS011;25309;48.686;9.170;2024-03-23T03:02:21;3.03;;;2.10;;
39620;SDS011;25309;48.686;9.170;2024-03-23T03:04:47;2.30;;;1.90;;
39620;SDS011;25309;48.686;9.170;2024-03-23T03:07:13;3.80;;;2.20;;
39620;SDS011;25309;48.686;9.170;2024-03-23T03:09:39;3.27;;;2.20;;
39620;SDS011;25309;48.686;9.170;2024-03-23T03:12:06;3.57;;;2.17;;
39620;SDS011;25309;48.686;9.170;2024-03-23T03:14:33;4.33;;;2.03;;
39620;SDS011;25309;48.686;9.170;2024-03-23T03:17:00;3.90;;;2.00;;
39620;SDS011;25309;48.686;9.170;2024-03-23T03:19:26;3.00;;;2.20;;
39620;SDS011;25309;48.686;9.170;2024-03-23T03:21:52;3.17;;;1.90;;
39620;SDS011;25309;48.686;9.170;2024-03-23T03:24:18;3.00;;;1.93;;
39620;SDS011;25309;48.686;9.170;2024-03-23T03:26:44;3.63;;;1.97;;
39620;SDS011;25309;48.686;9.170;2024-03-23T03:29:10;3.20;;;2.03;;
39620;SDS011;25309;48.686;9.170;2024-03-23T03:31:38;4.27;;;2.10;;
39620;SDS011;25309;48.686;9.170;2024-03-23T03:34:04;2.70;;;2.00;;
39620;SDS011;25309;48.686;9.170;2024-03-23T03:36:30;3.13;;;2.20;;
39620;SDS011;25309;48.686;9.170;2024-03-23T03:38:56;2.93;;;2.03;;
39620;SDS011;25309;48.686;9.170;2024-03-23T03:41:22;3.43;;;2.07;;
39620;SDS011;25309;48.686;9.170;2024-03-23T03:43:48;4.20;;;2.10;;
39620;SDS011;25309;48.686;9.170;2024-03-23T03:46:14;3.40;;;2.17;;
39620;SDS011;25309;48.686;9.170;2024-03-23T03:48:42;3.20;;;2.10;;
39620;SDS011;25309;48.686;9.170;2024-03-23T03:51:10;2.70;;;2.30;;
39620;SDS011;25309;48.686;9.170;2024-03-23T03:53:36;3.10;;;2.03;;
39620;SDS011;25309;48.686;9.170;2024-03-23T03:56:02;2.87;;;1.90;;
39620;SDS011;25309;48.686;9.170;2024-03-23T03:58:28;3.63;;;2.10;;
39620;SDS011;25309;48.686;9.170;2024-03-23T04:00:54;3.00;;;2.00;;
39620;SDS011;25309;48.686;9.170;2024-03-23T04:03:20;4.10;;;2.00;;
39620;SDS011;25309;48.686;9.170;2024-03-23T04:05:51;2.57;;;2.10;;
39620;SDS011;25309;48.686;9.170;2024-03-23T04:08:17;4.20;;;2.30;;
39620;SDS011;25309;48.686;9.170;2024-03-23T04:10:44;2.53;;;1.90;;
39620;SDS011;25309;48.686;9.170;2024-03-23T04:13:10;3.50;;;2.27;;
39620;SDS011;25309;48.686;9.170;2024-03-23T04:15:37;2.50;;;2.20;;
39620;SDS011;25309;48.686;9.170;2024-03-23T04:18:03;4.50;;;2.17;;
39620;SDS011;25309;48.686;9.170;2024-03-23T04:20:29;4.03;;;2.00;;
39620;SDS011;25309;48.686;9.170;2024-03-23T04:22:56;4.60;;;1.97;;
39620;SDS011;25309;48.686;9.170;2024-03-23T04:25:22;4.97;;;1.93;;
39620;SDS011;25309;48.686;9.170;2024-03-23T04:27:48;3.83;;;2.00;;
39620;SDS011;25309;48.686;9.170;2024-03-23T04:30:15;2.90;;;2.10;;
39620;SDS011;25309;48.686;9.170;2024-03-23T04:32:41;2.73;;;1.90;;
39620;SDS011;25309;48.686;9.170;2024-03-23T04:35:07;3.47;;;2.10;;
39620;SDS011;25309;48.686;9.170;2024-03-23T04:37:37;4.23;;;2.23;;
39620;SDS011;25309;48.686;9.170;2024-03-23T04:40:07;2.97;;;2.10;;
39620;SDS011;25309;48.686;9.170;2024-03-23T04:42:34;3.37;;;2.37;;
39620;SDS011;25309;48.686;9.170;2024-03-23T04:45:00;3.60;;;2.10;;
39620;SDS011;25309;48.686;9.170;2024-03-23T04:47:26;3.43;;;2.30;;
39620;SDS011;25309;48.686;9.170;2024-03-23T04:49:52;5.67;;;2.20;;
39620;SDS011;25309;48.686;9.170;2024-03-23T04:52:18;2.20;;;1.70;;
39620;SDS011;25309;48.686;9.170;2024-03-23T04:54:44;3.40;;;2.33;;
39620;SDS011;25309;48.686;9.170;2024-03-23T04:57:12;3.93;;;2.10;;
39620;SDS011;25309;48.686;9.170;2024-03-23T04:59:45;3.37;;;2.47;;
39620;SDS011;25309;48.686;9.170;2024-03-23T05:02:12;6.33;;;2.27;;
39620;SDS011;25309;48.686;9.170;2024-03-23T05:04:40;6.27;;;2.83;;
39620;SDS011;25309;48.686;9.170;2024-03-23T05:07:06;5.40;;;3.60;;
39620;SDS011;25309;48.686;9.170;2024-03-23T05:09:32;5.27;;;3.60;;
39620;SDS011;25309;48.686;9.170;2024-03-23T05:11:58;5.77;;;3.87;;
39620;SDS011;25309;48.686;9.170;2024-03-23T05:14:27;5.43;;;3.80;;
39620;SDS011;25309;48.686;9.170;2024-03-23T05:16:53;6.03;;;4.50;;
39620;SDS011;25309;48.686;9.170;2024-03-23T05:19:19;6.13;;;4.30;;
39620;SDS011;25309;48.686;9.170;2024-03-23T05:21:45;8.30;;;5.83;;
39620;SDS011;25309;48.686;9.170;2024-03-23T05:24:11;9.13;;;6.50;;
39620;SDS011;25309;48.686;9.170;2024-03-23T05:26:37;9.67;;;6.33;;
39620;SDS011;25309;48.686;9.170;2024-03-23T05:29:04;10.30;;;6.77;;
39620;SDS011;25309;48.686;9.170;2024-03-23T05:31:33;9.70;;;6.93;;
39620;SDS011;25309;48.686;9.170;2024-03-23T05:33:59;10.70;;;7.33;;
39620;SDS011;25309;48.686;9.170;2024-03-23T05:36:25;10.70;;;7.63;;
39620;SDS011;25309;48.686;9.170;2024-03-23T05:38:51;12.23;;;9.10;;
39620;SDS011;25309;48.686;9.170;2024-03-23T05:41:17;11.47;;;8.70;;
39620;SDS011;25309;48.686;9.170;2024-03-23T05:43:43;14.50;;;8.90;;
39620;SDS011;25309;48.686;9.170;2024-03-23T05:46:09;11.00;;;8.80;;
39620;SDS011;25309;48.686;9.170;2024-03-23T05:48:37;11.77;;;8.03;;
39620;SDS011;25309;48.686;9.170;2024-03-23T05:51:03;13.40;;;8.63;;
39620;SDS011;25309;48.686;9.170;2024-03-23T05:53:29;12.63;;;8.63;;
39620;SDS011;25309;48.686;9.170;2024-03-23T05:56:00;13.17;;;9.07;;
39620;SDS011;25309;48.686;9.170;2024-03-23T05:58:29;12.70;;;9.33;;
39620;SDS011;25309;48.686;9.170;2024-03-23T06:00:57;12.20;;;9.10;;
39620;SDS011;25309;48.686;9.170;2024-03-23T06:03:24;10.50;;;7.50;;
39620;SDS011;25309;48.686;9.170;2024-03-23T06:05:52;8.30;;;5.80;;
39620;SDS011;25309;48.686;9.170;2024-03-23T06:08:21;7.43;;;5.07;;
39620;SDS011;25309;48.686;9.170;2024-03-23T06:10:47;7.73;;;4.90;;
39620;SDS011;25309;48.686;9.170;2024-03-23T06:13:13;5.37;;;3.70;;
39620;SDS011;25309;48.686;9.170;2024-03-23T06:15:39;6.10;;;3.70;;
39620;SDS011;25309;48.686;9.170;2024-03-23T06:18:06;4.43;;;2.93;;
39620;SDS011;25309;48.686;9.170;2024-03-23T06:20:33;3.43;;;2.57;;
39620;SDS011;25309;48.686;9.170;2024-03-23T06:23:00;4.50;;;2.80;;
39620;SDS011;25309;48.686;9.170;2024-03-23T06:25:27;4.30;;;2.63;;
39620;SDS011;25309;48.686;9.170;2024-03-23T06:27:53;4.23;;;2.63;;
39620;SDS011;25309;48.686;9.170;2024-03-23T06:30:19;4.40;;;2.93;;
39620;SDS011;25309;48.686;9.170;2024-03-23T06:32:45;3.87;;;2.30;;
39620;SDS011;25309;48.686;9.170;2024-03-23T06:35:11;3.90;;;2.37;;
39620;SDS011;25309;48.686;9.170;2024-03-23T06:37:37;3.77;;;2.33;;
39620;SDS011;25309;48.686;9.170;2024-03-23T06:40:06;3.60;;;2.10;;
39620;SDS011;25309;48.686;9.170;2024-03-23T06:42:35;4.13;;;1.90;;
39620;SDS011;25309;48.686;9.170;2024-03-23T06:45:01;4.27;;;2.17;;
39620;SDS011;25309;48.686;9.170;2024-03-23T06:47:30;2.30;;;1.73;;
39620;SDS011;25309;48.686;9.170;2024-03-23T06:49:56;2.60;;;1.50;;
39620;SDS011;25309;48.686;9.170;2024-03-23T06:52:22;2.50;;;1.60;;
39620;SDS011;25309;48.686;9.170;2024-03-23T06:54:48;2.97;;;1.87;;
39620;SDS011;25309;48.686;9.170;2024-03-23T06:57:15;2.10;;;1.70;;
39620;SDS011;25309;48.686;9.170;2024-03-23T06:59:41;2.37;;;1.50;;
39620;SDS011;25309;48.686;9.170;2024-03-23T07:02:07;1.50;;;1.20;;
39620;SDS011;25309;48.686;9.170;2024-03-23T07:04:33;2.10;;;1.20;;
39620;SDS011;25309;48.686;9.170;2024-03-23T07:07:00;1.30;;;1.00;;
39620;SDS011;25309;48.686;9.170;2024-03-23T07:09:27;1.60;;;1.03;;
39620;SDS011;25309;48.686;9.170;2024-03-23T07:11:53;1.27;;;0.93;;
39620;SDS011;25309;48.686;9.170;2024-03-23T07:14:21;1.57;;;0.87;;
39620;SDS011;25309;48.686;9.170;2024-03-23T07:16:47;1.73;;;0.90;;
39620;SDS011;25309;48.686;9.170;2024-03-23T07:19:14;0.93;;;0.80;;
39620;SDS011;25309;48.686;9.170;2024-03-23T07:21:41;1.20;;;0.87;;
39620;SDS011;25309;48.686;9.170;2024-03-23T07:24:07;1.40;;;0.80;;
39620;SDS011;25309;48.686;9.170;2024-03-23T07:26:33;0.80;;;0.80;;
39620;SDS011;25309;48.686;9.170;2024-03-23T07:28:59;1.10;;;0.87;;
39620;SDS011;25309;48.686;9.170;2024-03-23T07:31:27;1.27;;;0.77;;
39620;SDS011;25309;48.686;9.170;2024-03-23T07:33:53;0.90;;;0.70;;
39620;SDS011;25309;48.686;9.170;2024-03-23T07:36:19;3.07;;;0.93;;
39620;SDS011;25309;48.686;9.170;2024-03-23T07:38:46;0.50;;;0.40;;
39620;SDS011;25309;48.686;9.170;2024-03-23T07:41:14;0.70;;;0.60;;
39620;SDS011;25309;48.686;9.170;2024-03-23T07:43:42;0.40;;;0.30;;
39620;SDS011;25309;48.686;9.170;2024-03-23T07:46:09;1.00;;;0.37;;
39620;SDS011;25309;48.686;9.170;2024-03-23T07:48:36;1.50;;;0.30;;
39620;SDS011;25309;48.686;9.170;2024-03-23T07:51:03;0.70;;;0.30;;
39620;SDS011;25309;48.686;9.170;2024-03-23T07:53:30;0.30;;;0.30;;
39620;SDS011;25309;48.686;9.170;2024-03-23T07:55:56;0.33;;;0.33;;
39620;SDS011;25309;48.686;9.170;2024-03-23T07:58:23;0.20;;;0.20;;
39620;SDS011;25309;48.686;9.170;2024-03-23T08:00:49;0.20;;;0.20;;
39620;SDS011;25309;48.686;9.170;2024-03-23T08:03:15;0.20;;;0.20;;
39620;SDS011;25309;48.686;9.170;2024-03-23T08:05:43;0.20;;;0.20;;
39620;SDS011;25309;48.686;9.170;2024-03-23T08:08:09;0.20;;;0.20;;
39620;SDS011;25309;48.686;9.170;2024-03-23T08:10:36;0.20;;;0.20;;
39620;SDS011;25309;48.686;9.170;2024-03-23T08:13:02;0.50;;;0.20;;
39620;SDS011;25309;48.686;9.170;2024-03-23T08:15:29;0.33;;;0.33;;
39620;SDS011;25309;48.686;9.170;2024-03-23T08:17:58;0.73;;;0.20;;
39620;SDS011;25309;48.686;9.170;2024-03-23T08:20:24;0.40;;;0.40;;
39620;SDS011;25309;48.686;9.170;2024-03-23T08:22:52;0.30;;;0.20;;
39620;SDS011;25309;48.686;9.170;2024-03-23T08:25:18;1.00;;;0.40;;
39620;SDS011;25309;48.686;9.170;2024-03-23T08:27:44;0.73;;;0.60;;
39620;SDS011;25309;48.686;9.170;2024-03-23T08:30:10;0.87;;;0.63;;
39620;SDS011;25309;48.686;9.170;2024-03-23T08:32:37;0.60;;;0.60;;
39620;SDS011;25309;48.686;9.170;2024-03-23T08:35:03;1.50;;;0.77;;
39620;SDS011;25309;48.686;9.170;2024-03-23T08:37:30;0.73;;;0.70;;
39620;SDS011;25309;48.686;9.170;2024-03-23T08:39:57;2.00;;;0.80;;
39620;SDS011;25309;48.686;9.170;2024-03-23T08:42:24;2.00;;;1.27;;
39620;SDS011;25309;48.686;9.170;2024-03-23T08:44:50;2.27;;;1.23;;
39620;SDS011;25309;48.686;9.170;2024-03-23T08:47:16;2.53;;;1.17;;
39620;SDS011;25309;48.686;9.170;2024-03-23T08:49:42;2.50;;;1.17;;
39620;SDS011;25309;48.686;9.170;2024-03-23T08:52:09;3.00;;;1.40;;
39620;SDS011;25309;48.686;9.170;2024-03-23T08:54:36;1.70;;;1.23;;
39620;SDS011;25309;48.686;9.170;2024-03-23T08:57:03;1.83;;;1.00;;
39620;SDS011;25309;48.686;9.170;2024-03-23T08:59:29;1.97;;;1.13;;
39620;SDS011;25309;48.686;9.170;2024-03-23T09:01:55;2.23;;;1.17;;
39620;SDS011;25309;48.686;9.170;2024-03-23T09:04:22;2.40;;;1.30;;
39620;SDS011;25309;48.686;9.170;2024-03-23T09:06:47;3.03;;;1.20;;
39620;SDS011;25309;48.686;9.170;2024-03-23T09:09:13;1.70;;;1.27;;
39620;SDS011;25309;48.686;9.170;2024-03-23T09:11:39;2.30;;;1.13;;
39620;SDS011;25309;48.686;9.170;2024-03-23T09:14:07;3.37;;;1.30;;
39620;SDS011;25309;48.686;9.170;2024-03-23T09:16:34;5.50;;;1.80;;
39620;SDS011;25309;48.686;9.170;2024-03-23T09:19:00;3.20;;;1.60;;
39620;SDS011;25309;48.686;9.170;2024-03-23T09:21:26;5.43;;;1.70;;
39620;SDS011;25309;48.686;9.170;2024-03-23T09:23:52;4.53;;;2.20;;
39620;SDS011;25309;48.686;9.170;2024-03-23T09:26:18;4.57;;;2.17;;
39620;SDS011;25309;48.686;9.170;2024-03-23T09:28:44;5.07;;;2.50;;
39620;SDS011;25309;48.686;9.170;2024-03-23T09:31:11;4.63;;;2.43;;
39620;SDS011;25309;48.686;9.170;2024-03-23T09:33:39;4.77;;;2.27;;
39620;SDS011;25309;48.686;9.170;2024-03-23T09:36:06;4.83;;;2.43;;
39620;SDS011;25309;48.686;9.170;2024-03-23T09:38:33;3.60;;;2.00;;
39620;SDS011;25309;48.686;9.170;2024-03-23T09:40:59;5.30;;;2.63;;
39620;SDS011;25309;48.686;9.170;2024-03-23T09:43:26;5.53;;;2.60;;
39620;SDS011;25309;48.686;9.170;2024-03-23T09:45:52;7.00;;;2.77;;
39620;SDS011;25309;48.686;9.170;2024-03-23T09:48:19;9.23;;;3.20;;
39620;SDS011;25309;48.686;9.170;2024-03-23T09:50:46;6.87;;;2.80;;
39620;SDS011;25309;48.686;9.170;2024-03-23T09:53:14;6.30;;;2.90;;
39620;SDS011;25309;48.686;9.170;2024-03-23T09:55:41;5.77;;;2.80;;
39620;SDS011;25309;48.686;9.170;2024-03-23T09:58:08;8.50;;;2.80;;
39620;SDS011;25309;48.686;9.170;2024-03-23T10:00:38;4.67;;;2.67;;
39620;SDS011;25309;48.686;9.170;2024-03-23T10:03:04;5.13;;;2.90;;
39620;SDS011;25309;48.686;9.170;2024-03-23T10:05:33;6.57;;;2.90;;
39620;SDS011;25309;48.686;9.170;2024-03-23T10:08:02;6.67;;;2.67;;
39620;SDS011;25309;48.686;9.170;2024-03-23T10:10:43;6.57;;;2.70;;
39620;SDS011;25309;48.686;9.170;2024-03-23T10:13:10;6.60;;;2.90;;
39620;SDS011;25309;48.686;9.170;2024-03-23T10:15:38;6.20;;;2.67;;
39620;SDS011;25309;48.686;9.170;2024-03-23T10:18:04;6.63;;;2.87;;
39620;SDS011;25309;48.686;9.170;2024-03-23T10:20:47;7.83;;;2.50;;
39620;SDS011;25309;48.686;9.170;2024-03-23T10:23:16;6.77;;;2.70;;
39620;SDS011;25309;48.686;9.170;2024-03-23T10:25:42;4.90;;;2.63;;
39620;SDS011;25309;48.686;9.170;2024-03-23T10:28:09;4.97;;;2.47;;
39620;SDS011;25309;48.686;9.170;2024-03-23T10:30:37;5.67;;;2.50;;
39620;SDS011;25309;48.686;9.170;2024-03-23T10:33:09;8.70;;;2.90;;
39620;SDS011;25309;48.686;9.170;2024-03-23T10:35:36;6.17;;;2.47;;
39620;SDS011;25309;48.686;9.170;2024-03-23T10:38:06;5.00;;;2.37;;
39620;SDS011;25309;48.686;9.170;2024-03-23T10:40:33;8.53;;;3.17;;
39620;SDS011;25309;48.686;9.170;2024-03-23T10:43:00;7.20;;;2.60;;
39620;SDS011;25309;48.686;9.170;2024-03-23T10:45:28;4.87;;;2.80;;
39620;SDS011;25309;48.686;9.170;2024-03-23T10:47:54;6.20;;;2.73;;
39620;SDS011;25309;48.686;9.170;2024-03-23T10:50:21;4.80;;;2.60;;
39620;SDS011;25309;48.686;9.170;2024-03-23T10:52:48;5.43;;;2.60;;
39620;SDS011;25309;48.686;9.170;2024-03-23T10:55:16;7.40;;;3.20;;
39620;SDS011;25309;48.686;9.170;2024-03-23T10:57:44;5.60;;;2.90;;
39620;SDS011;25309;48.686;9.170;2024-03-23T11:00:15;6.43;;;2.80;;
39620;SDS011;25309;48.686;9.170;2024-03-23T11:02:41;7.03;;;3.00;;
39620;SDS011;25309;48.686;9.170;2024-03-23T11:07:55;5.53;;;2.07;;
39620;SDS011;25309;48.686;9.170;2024-03-23T11:10:26;4.97;;;1.87;;
39620;SDS011;25309;48.686;9.170;2024-03-23T11:12:54;4.13;;;2.13;;
39620;SDS011;25309;48.686;9.170;2024-03-23T11:15:20;4.33;;;2.00;;
39620;SDS011;25309;48.686;9.170;2024-03-23T11:20:31;3.57;;;1.80;;
39620;SDS011;25309;48.686;9.170;2024-03-23T11:22:57;3.03;;;2.00;;
39620;SDS011;25309;48.686;9.170;2024-03-23T11:25:26;3.43;;;1.80;;
39620;SDS011;25309;48.686;9.170;2024-03-23T11:27:53;4.70;;;1.80;;
39620;SDS011;25309;48.686;9.170;2024-03-23T11:30:21;3.87;;;1.67;;
39620;SDS011;25309;48.686;9.170;2024-03-23T11:32:48;3.37;;;1.80;;
39620;SDS011;25309;48.686;9.170;2024-03-23T11:35:26;4.77;;;1.87;;
39620;SDS011;25309;48.686;9.170;2024-03-23T11:38:08;3.17;;;1.63;;
39620;SDS011;25309;48.686;9.170;2024-03-23T11:40:37;4.73;;;2.00;;
39620;SDS011;25309;48.686;9.170;2024-03-23T11:43:05;4.93;;;1.80;;
39620;SDS011;25309;48.686;9.170;2024-03-23T11:45:33;2.93;;;1.80;;
39620;SDS011;25309;48.686;9.170;2024-03-23T11:48:07;2.90;;;1.80;;
39620;SDS011;25309;48.686;9.170;2024-03-23T11:50:35;4.03;;;1.63;;
39620;SDS011;25309;48.686;9.170;2024-03-23T11:55:49;4.40;;;2.20;;
39620;SDS011;25309;48.686;9.170;2024-03-23T11:58:16;4.67;;;1.90;;
39620;SDS011;25309;48.686;9.170;2024-03-23T12:00:48;3.43;;;1.60;;
39620;SDS011;25309;48.686;9.170;2024-03-23T12:03:16;3.53;;;1.67;;
39620;SDS011;25309;48.686;9.170;2024-03-23T12:05:46;4.03;;;1.50;;
39620;SDS011;25309;48.686;9.170;2024-03-23T12:08:18;5.93;;;1.77;;
39620;SDS011;25309;48.686;9.170;2024-03-23T12:10:50;4.37;;;1.83;;
39620;SDS011;25309;48.686;9.170;2024-03-23T12:13:17;4.33;;;1.53;;
39620;SDS011;25309;48.686;9.170;2024-03-23T12:15:45;4.03;;;1.67;;
39620;SDS011;25309;48.686;9.170;2024-03-23T12:18:12;2.00;;;1.20;;
39620;SDS011;25309;48.686;9.170;2024-03-23T12:20:39;4.00;;;1.67;;
39620;SDS011;25309;48.686;9.170;2024-03-23T12:23:05;4.23;;;1.40;;
39620;SDS011;25309;48.686;9.170;2024-03-23T12:25:32;5.00;;;1.80;;
39620;SDS011;25309;48.686;9.170;2024-03-23T12:28:00;4.70;;;1.80;;
39620;SDS011;25309;48.686;9.170;2024-03-23T12:30:25;4.43;;;1.93;;
39620;SDS011;25309;48.686;9.170;2024-03-23T12:32:51;5.70;;;1.57;;
39620;SDS011;25309;48.686;9.170;2024-03-23T12:35:17;6.07;;;1.83;;
39620;SDS011;25309;48.686;9.170;2024-03-23T12:37:43;6.73;;;1.60;;
39620;SDS011;25309;48.686;9.170;2024-03-23T12:40:10;8.00;;;2.20;;
39620;SDS011;25309;48.686;9.170;2024-03-23T12:42:36;5.27;;;1.67;;
39620;SDS011;25309;48.686;9.170;2024-03-23T12:45:04;7.30;;;2.30;;
39620;SDS011;25309;48.686;9.170;2024-03-23T12:47:30;6.50;;;2.80;;
39620;SDS011;25309;48.686;9.170;2024-03-23T12:49:56;6.53;;;2.20;;
39620;SDS011;25309;48.686;9.170;2024-03-23T12:52:23;5.37;;;1.67;;
39620;SDS011;25309;48.686;9.170;2024-03-23T12:54:54;5.70;;;1.90;;
39620;SDS011;25309;48.686;9.170;2024-03-23T12:57:21;4.97;;;2.00;;
39620;SDS011;25309;48.686;9.170;2024-03-23T12:59:48;7.70;;;2.20;;
39620;SDS011;25309;48.686;9.170;2024-03-23T13:02:18;5.80;;;2.43;;
39620;SDS011;25309;48.686;9.170;2024-03-23T13:04:45;4.60;;;2.03;;
39620;SDS011;25309;48.686;9.170;2024-03-23T13:07:12;4.60;;;2.07;;
39620;SDS011;25309;48.686;9.170;2024-03-23T13:09:38;6.07;;;2.30;;
39620;SDS011;25309;48.686;9.170;2024-03-23T13:12:04;4.97;;;2.03;;
39620;SDS011;25309;48.686;9.170;2024-03-23T13:14:31;7.70;;;2.87;;
39620;SDS011;25309;48.686;9.170;2024-03-23T13:16:57;5.83;;;2.47;;
39620;SDS011;25309;48.686;9.170;2024-03-23T13:19:24;5.67;;;2.20;;
39620;SDS011;25309;48.686;9.170;2024-03-23T13:21:52;5.87;;;2.30;;
39620;SDS011;25309;48.686;9.170;2024-03-23T13:24:21;7.40;;;2.30;;
39620;SDS011;25309;48.686;9.170;2024-03-23T13:26:47;3.73;;;1.37;;
39620;SDS011;25309;48.686;9.170;2024-03-23T13:29:13;3.43;;;1.10;;
39620;SDS011;25309;48.686;9.170;2024-03-23T13:31:39;2.53;;;0.90;;
39620;SDS011;25309;48.686;9.170;2024-03-23T13:34:06;2.43;;;0.60;;
39620;SDS011;25309;48.686;9.170;2024-03-23T13:36:33;2.17;;;0.70;;
39620;SDS011;25309;48.686;9.170;2024-03-23T13:39:00;1.17;;;0.70;;
39620;SDS011;25309;48.686;9.170;2024-03-23T13:41:26;2.17;;;0.90;;
39620;SDS011;25309;48.686;9.170;2024-03-23T13:43:52;1.53;;;0.63;;
39620;SDS011;25309;48.686;9.170;2024-03-23T13:46:18;1.97;;;0.70;;
39620;SDS011;25309;48.686;9.170;2024-03-23T13:48:44;3.07;;;0.70;;
39620;SDS011;25309;48.686;9.170;2024-03-23T13:51:10;4.67;;;0.87;;
39620;SDS011;25309;48.686;9.170;2024-03-23T13:53:38;1.50;;;0.90;;
39620;SDS011;25309;48.686;9.170;2024-03-23T13:56:04;3.07;;;1.00;;
39620;SDS011;25309;48.686;9.170;2024-03-23T13:58:30;1.87;;;0.90;;
39620;SDS011;25309;48.686;9.170;2024-03-23T14:00:56;2.77;;;1.03;;
39620;SDS011;25309;48.686;9.170;2024-03-23T14:03:23;2.57;;;1.27;;
39620;SDS011;25309;48.686;9.170;2024-03-23T14:05:49;3.13;;;1.20;;
39620;SDS011;25309;48.686;9.170;2024-03-23T14:08:17;4.27;;;1.40;;
39620;SDS011;25309;48.686;9.170;2024-03-23T14:10:46;4.13;;;1.27;;
39620;SDS011;25309;48.686;9.170;2024-03-23T14:13:12;3.77;;;1.30;;
39620;SDS011;25309;48.686;9.170;2024-03-23T14:15:37;4.50;;;1.40;;
39620;SDS011;25309;48.686;9.170;2024-03-23T14:18:04;2.67;;;1.07;;
39620;SDS011;25309;48.686;9.170;2024-03-23T14:20:30;2.63;;;0.97;;
39620;SDS011;25309;48.686;9.170;2024-03-23T14:22:57;2.57;;;0.77;;
39620;SDS011;25309;48.686;9.170;2024-03-23T14:25:23;2.63;;;0.90;;
39620;SDS011;25309;48.686;9.170;2024-03-23T14:27:53;2.97;;;1.47;;
39620;SDS011;25309;48.686;9.170;2024-03-23T14:30:19;2.40;;;0.90;;
39620;SDS011;25309;48.686;9.170;2024-03-23T14:32:45;1.70;;;0.80;;
39620;SDS011;25309;48.686;9.170;2024-03-23T14:35:11;2.67;;;1.10;;
39620;SDS011;25309;48.686;9.170;2024-03-23T14:37:37;1.57;;;0.90;;
39620;SDS011;25309;48.686;9.170;2024-03-23T14:40:04;3.10;;;1.20;;
39620;SDS011;25309;48.686;9.170;2024-03-23T14:42:30;3.10;;;0.90;;
39620;SDS011;25309;48.686;9.170;2024-03-23T14:44:59;2.87;;;1.00;;
39620;SDS011;25309;48.686;9.170;2024-03-23T14:47:25;2.70;;;1.40;;
39620;SDS011;25309;48.686;9.170;2024-03-23T14:49:51;1.37;;;0.90;;
39620;SDS011;25309;48.686;9.170;2024-03-23T14:52:17;3.13;;;0.90;;
39620;SDS011;25309;48.686;9.170;2024-03-23T14:54:46;3.00;;;1.17;;
39620;SDS011;25309;48.686;9.170;2024-03-23T14:57:12;4.23;;;0.90;;
39620;SDS011;25309;48.686;9.170;2024-03-23T14:59:38;4.90;;;1.20;;
39620;SDS011;25309;48.686;9.170;2024-03-23T15:02:07;4.20;;;1.17;;
39620;SDS011;25309;48.686;9.170;2024-03-23T15:04:33;2.53;;;1.00;;
39620;SDS011;25309;48.686;9.170;2024-03-23T15:06:59;4.43;;;1.20;;
39620;SDS011;25309;48.686;9.170;2024-03-23T15:09:25;3.63;;;1.20;;
39620;SDS011;25309;48.686;9.170;2024-03-23T15:11:51;0.80;;;0.57;;
39620;SDS011;25309;48.686;9.170;2024-03-23T15:14:17;2.93;;;0.83;;
39620;SDS011;25309;48.686;9.170;2024-03-23T15:16:43;2.13;;;0.90;;
39620;SDS011;25309;48.686;9.170;2024-03-23T15:19:10;1.87;;;1.00;;
39620;SDS011;25309;48.686;9.170;2024-03-23T15:21:36;1.40;;;1.00;;
39620;SDS011;25309;48.686;9.170;2024-03-23T15:24:02;2.93;;;1.30;;
39620;SDS011;25309;48.686;9.170;2024-03-23T15:26:28;2.30;;;0.97;;
39620;SDS011;25309;48.686;9.170;2024-03-23T15:28:54;2.87;;;1.33;;
39620;SDS011;25309;48.686;9.170;2024-03-23T15:31:23;1.80;;;0.90;;
39620;SDS011;25309;48.686;9.170;2024-03-23T15:33:50;1.83;;;0.77;;
39620;SDS011;25309;48.686;9.170;2024-03-23T15:36:18;1.00;;;0.80;;
39620;SDS011;25309;48.686;9.170;2024-03-23T15:38:44;2.17;;;1.20;;
39620;SDS011;25309;48.686;9.170;2024-03-23T15:41:10;4.63;;;1.90;;
39620;SDS011;25309;48.686;9.170;2024-03-23T15:43:36;1.37;;;0.80;;
39620;SDS011;25309;48.686;9.170;2024-03-23T15:46:04;2.70;;;0.90;;
39620;SDS011;25309;48.686;9.170;2024-03-23T15:48:31;2.63;;;0.90;;